Time;durP1;ratioP1;P1;durP2;ratioP2;P2;SDS_P1;SDS_P2;PMS_P1;PMS_P2;Temp;Humidity;BMP_temperature;BMP_pressure;BME280_temperature;BME280_humidity;BME280_pressure;Samples;Min_cycle;Max_cycle;Signal;HPM_P1;HPM_P2
2023/06/24 00:01:36;;;;;;;1.80;1.70;;;13.80;99.90;;;;;;5013887;28;20221;-71
2023/06/24 00:04:02;;;;;;;1.17;1.17;;;13.80;99.90;;;;;;5014172;28;20533;-69
2023/06/24 00:06:27;;;;;;;1.87;1.60;;;13.80;99.90;;;;;;5013928;28;20418;-71
2023/06/24 00:09:00;;;;;;;0.80;0.80;;;13.70;99.90;;;;;;5013777;28;20242;-71
2023/06/24 00:11:28;;;;;;;0.80;0.80;;;13.70;99.90;;;;;;5014057;28;20171;-69
2023/06/24 00:13:54;;;;;;;1.70;1.10;;;13.70;99.90;;;;;;5013706;28;20454;-71
2023/06/24 00:16:26;;;;;;;2.87;2.73;;;13.60;99.90;;;;;;5014113;28;20402;-71
2023/06/24 00:18:52;;;;;;;2.20;1.90;;;13.60;99.90;;;;;;5013737;28;20517;-70
2023/06/24 00:21:19;;;;;;;3.33;2.43;;;13.50;99.90;;;;;;5013483;28;20433;-69
2023/06/24 00:23:45;;;;;;;1.67;1.57;;;13.50;99.90;;;;;;5013650;28;20468;-69
2023/06/24 00:26:10;;;;;;;2.37;2.20;;;13.40;99.90;;;;;;5013726;28;20790;-70
2023/06/24 00:28:36;;;;;;;2.80;1.10;;;13.50;99.90;;;;;;5013607;28;20437;-70
2023/06/24 00:31:02;;;;;;;1.00;0.90;;;13.40;99.90;;;;;;5013595;28;20171;-69
2023/06/24 00:33:28;;;;;;;2.00;1.63;;;13.40;99.90;;;;;;5013703;28;20202;-70
2023/06/24 00:35:56;;;;;;;1.37;1.37;;;13.40;99.90;;;;;;5013641;28;20505;-71
2023/06/24 00:38:22;;;;;;;1.63;1.47;;;13.40;99.90;;;;;;5013537;28;20195;-71
2023/06/24 00:40:47;;;;;;;1.40;1.17;;;13.40;99.90;;;;;;5013796;28;20432;-71
2023/06/24 00:43:13;;;;;;;3.20;1.87;;;13.40;99.90;;;;;;5013451;28;20190;-68
2023/06/24 00:45:39;;;;;;;2.90;2.57;;;13.50;99.90;;;;;;5013703;28;20178;-71
2023/06/24 00:48:06;;;;;;;1.40;1.40;;;13.40;99.90;;;;;;4995927;28;20210;-70
2023/06/24 00:50:31;;;;;;;3.13;1.20;;;13.40;99.90;;;;;;4995852;28;20759;-71
2023/06/24 00:52:57;;;;;;;1.60;0.70;;;;;;;;;;5013168;28;20559;-70
2023/06/24 00:55:23;;;;;;;2.63;2.00;;;13.30;99.90;;;;;;5013461;28;20257;-69
2023/06/24 00:57:53;;;;;;;2.20;1.73;;;13.30;99.90;;;;;;5013335;28;20802;-70
2023/06/24 01:00:21;;;;;;;1.60;1.50;;;13.20;99.90;;;;;;5013330;28;20406;-69
2023/06/24 01:02:48;;;;;;;0.93;0.93;;;13.20;99.90;;;;;;5013174;28;20422;-69
2023/06/24 01:05:14;;;;;;;1.60;1.50;;;13.20;99.90;;;;;;5013426;28;20411;-70
2023/06/24 01:07:41;;;;;;;1.70;1.60;;;13.30;99.90;;;;;;5013173;28;20429;-69
2023/06/24 01:10:08;;;;;;;2.77;2.57;;;13.30;99.90;;;;;;5013472;28;20402;-70
2023/06/24 01:12:35;;;;;;;3.37;3.07;;;13.30;99.90;;;;;;5013077;28;20433;-70
2023/06/24 01:15:03;;;;;;;3.20;2.90;;;13.30;99.90;;;;;;5013323;28;20925;-69
2023/06/24 01:17:47;;;;;;;1.63;1.53;;;13.30;99.90;;;;;;5013291;28;20917;-71
2023/06/24 01:20:40;;;;;;;1.13;1.03;;;13.20;99.90;;;;;;5013591;28;20397;-71
2023/06/24 01:23:06;;;;;;;2.10;2.00;;;13.20;99.90;;;;;;5013170;28;20406;-71
2023/06/24 01:25:55;;;;;;;4.00;3.10;;;13.20;99.90;;;;;;5013275;28;20418;-69
2023/06/24 01:28:36;;;;;;;1.20;1.10;;;13.30;99.90;;;;;;5013247;28;20508;-71
2023/06/24 01:31:20;;;;;;;3.03;2.13;;;13.30;99.90;;;;;;5012986;28;20948;-69
2023/06/24 01:33:59;;;;;;;1.53;1.43;;;13.30;99.90;;;;;;5013360;28;20533;-70
2023/06/24 01:36:28;;;;;;;1.37;1.27;;;13.20;99.90;;;;;;5013012;28;20846;-68
2023/06/24 01:39:08;;;;;;;2.70;2.50;;;13.20;99.90;;;;;;5013005;28;20521;-70
2023/06/24 01:41:44;;;;;;;0.73;0.73;;;13.20;99.90;;;;;;5016588;28;20441;-71
2023/06/24 01:44:15;;;;;;;4.07;1.63;;;13.10;99.90;;;;;;5016680;28;20418;-70
2023/06/24 01:46:44;;;;;;;1.37;1.27;;;13.10;99.90;;;;;;4999079;28;20941;-69
2023/06/24 01:49:13;;;;;;;1.53;1.43;;;13.20;99.90;;;;;;5016339;28;20930;-68
2023/06/24 01:51:41;;;;;;;1.47;1.23;;;13.20;99.90;;;;;;5016278;28;20785;-69
2023/06/24 01:54:13;;;;;;;4.03;1.90;;;13.40;99.90;;;;;;5016369;28;20503;-70
2023/06/24 01:56:41;;;;;;;1.37;1.27;;;13.50;99.90;;;;;;5016596;28;20457;-71
2023/06/24 01:59:08;;;;;;;1.53;1.23;;;13.50;99.90;;;;;;5016140;28;20422;-72
2023/06/24 02:01:38;;;;;;;2.10;1.63;;;13.50;99.90;;;;;;5015988;28;20418;-70
2023/06/24 02:04:06;;;;;;;1.53;1.47;;;13.40;99.90;;;;;;5016599;28;20410;-69
2023/06/24 02:06:32;;;;;;;2.83;2.60;;;13.60;99.90;;;;;;5016343;28;20518;-69
2023/06/24 02:09:00;;;;;;;1.83;1.73;;;13.40;99.90;;;;;;5015851;28;20977;-71
2023/06/24 02:11:28;;;;;;;2.50;1.23;;;13.30;99.90;;;;;;5015966;28;20443;-69
2023/06/24 02:13:55;;;;;;;1.03;1.03;;;13.30;99.90;;;;;;5015825;28;20503;-71
2023/06/24 02:16:22;;;;;;;1.43;1.13;;;13.20;99.90;;;;;;5016327;28;20556;-71
2023/06/24 02:18:48;;;;;;;1.63;1.37;;;13.10;99.90;;;;;;5015936;28;20532;-70
2023/06/24 02:21:17;;;;;;;1.00;1.00;;;13.10;99.90;;;;;;5015929;28;20409;-69
2023/06/24 02:23:44;;;;;;;1.20;0.97;;;13.00;99.90;;;;;;5015901;28;20940;-70
2023/06/24 02:26:11;;;;;;;0.80;0.80;;;13.10;99.90;;;;;;5015924;28;20401;-71
2023/06/24 02:28:38;;;;;;;3.40;1.40;;;13.10;99.90;;;;;;5015535;28;20445;-71
2023/06/24 02:31:05;;;;;;;3.63;1.90;;;13.10;99.90;;;;;;5015553;28;20409;-69
2023/06/24 02:33:31;;;;;;;1.60;1.47;;;13.10;99.90;;;;;;5015581;28;20454;-69
2023/06/24 02:35:57;;;;;;;2.00;1.20;;;13.20;99.90;;;;;;5015636;28;20422;-70
2023/06/24 02:38:23;;;;;;;1.00;1.00;;;13.20;99.90;;;;;;5015493;28;20427;-71
2023/06/24 02:40:51;;;;;;;1.43;1.33;;;13.10;99.90;;;;;;5015444;28;20233;-71
2023/06/24 02:43:17;;;;;;;1.67;1.57;;;13.10;99.90;;;;;;5015501;28;20417;-71
2023/06/24 02:45:44;;;;;;;3.17;2.97;;;13.00;99.90;;;;;;5015570;28;20524;-69
2023/06/24 02:48:12;;;;;;;3.03;1.37;;;13.10;99.90;;;;;;5015338;28;20792;-68
2023/06/24 02:50:44;;;;;;;2.33;2.17;;;13.10;99.90;;;;;;5015632;28;20505;-69
2023/06/24 02:53:14;;;;;;;1.37;1.37;;;13.10;99.90;;;;;;5014461;28;20957;-71
2023/06/24 02:55:42;;;;;;;1.83;1.73;;;13.00;99.90;;;;;;5015394;28;20406;-71
2023/06/24 02:58:08;;;;;;;3.50;1.90;;;13.00;99.90;;;;;;5015210;28;20501;-70
2023/06/24 03:00:35;;;;;;;1.57;1.47;;;13.10;99.90;;;;;;5015153;28;20413;-71
2023/06/24 03:03:03;;;;;;;2.40;1.97;;;13.00;99.90;;;;;;5015042;28;20783;-71
2023/06/24 03:05:30;;;;;;;1.60;1.60;;;13.00;99.90;;;;;;5015073;28;20413;-71
2023/06/24 03:07:57;;;;;;;1.50;1.50;;;13.10;99.90;;;;;;5014880;28;20453;-70
2023/06/24 03:10:25;;;;;;;1.13;1.13;;;13.10;99.90;;;;;;5014948;28;20407;-70
2023/06/24 03:12:51;;;;;;;2.10;1.27;;;13.00;99.90;;;;;;5014663;28;20446;-71
2023/06/24 03:15:17;;;;;;;1.83;1.73;;;13.00;99.90;;;;;;5015054;28;20409;-70
2023/06/24 03:17:43;;;;;;;1.10;1.10;;;13.10;99.90;;;;;;5015162;28;20425;-71
2023/06/24 03:20:10;;;;;;;2.60;2.40;;;13.10;99.90;;;;;;5014768;28;20402;-70
2023/06/24 03:22:35;;;;;;;2.60;2.40;;;13.10;99.90;;;;;;5014543;28;20409;-70
2023/06/24 03:25:01;;;;;;;1.40;1.40;;;13.00;99.90;;;;;;5014658;28;20925;-71
2023/06/24 03:27:26;;;;;;;2.90;2.70;;;13.30;99.90;;;;;;5014064;28;20171;-69
2023/06/24 03:29:52;;;;;;;2.50;1.90;;;13.10;99.90;;;;;;5014582;28;20177;-69
2023/06/24 03:32:18;;;;;;;2.00;1.83;;;13.10;99.90;;;;;;5014307;28;20171;-70
2023/06/24 03:34:43;;;;;;;0.80;0.80;;;13.10;99.90;;;;;;5014465;28;20686;-70
2023/06/24 03:37:09;;;;;;;2.30;2.20;;;13.00;99.90;;;;;;5014500;28;20181;-69
2023/06/24 03:39:35;;;;;;;1.03;0.83;;;13.00;99.90;;;;;;5014386;28;20188;-69
2023/06/24 03:42:00;;;;;;;1.07;1.03;;;12.90;99.90;;;;;;5014185;28;20233;-71
2023/06/24 03:44:26;;;;;;;4.07;2.00;;;12.90;99.90;;;;;;5014488;28;20261;-71
2023/06/24 03:46:52;;;;;;;0.87;0.87;;;13.00;99.90;;;;;;5014450;28;20171;-71
2023/06/24 03:49:18;;;;;;;2.73;2.53;;;13.10;99.90;;;;;;5014147;28;20438;-71
2023/06/24 03:51:43;;;;;;;2.23;2.03;;;13.00;99.90;;;;;;5014004;28;20255;-69
2023/06/24 03:54:09;;;;;;;1.63;1.20;;;13.00;99.90;;;;;;5014183;28;20544;-71
2023/06/24 03:56:35;;;;;;;1.53;1.43;;;13.00;99.90;;;;;;5014151;28;20175;-70
2023/06/24 03:59:02;;;;;;;0.87;0.87;;;13.10;99.90;;;;;;5014020;28;20949;-70
2023/06/24 04:01:31;;;;;;;1.80;1.70;;;13.10;99.90;;;;;;5014007;28;20555;-69
2023/06/24 04:03:57;;;;;;;0.80;0.80;;;13.20;99.90;;;;;;5013697;28;20418;-71
2023/06/24 04:06:23;;;;;;;3.03;2.83;;;13.20;99.90;;;;;;5014025;28;20413;-69
2023/06/24 04:08:51;;;;;;;1.27;1.27;;;13.20;99.90;;;;;;5013847;28;20950;-71
2023/06/24 04:11:17;;;;;;;1.27;1.17;;;13.20;99.90;;;;;;5013832;28;20206;-71
2023/06/24 04:13:44;;;;;;;2.23;2.03;;;13.30;99.90;;;;;;5013915;28;20562;-70
2023/06/24 04:16:10;;;;;;;1.30;1.20;;;13.30;99.90;;;;;;5014223;28;20985;-68
2023/06/24 04:18:39;;;;;;;1.67;1.47;;;13.30;99.90;;;;;;5013740;28;20517;-71
2023/06/24 04:21:06;;;;;;;1.07;1.07;;;13.40;99.90;;;;;;5013756;28;20253;-69
2023/06/24 04:23:32;;;;;;;3.37;2.77;;;13.40;99.90;;;;;;5013714;28;20403;-69
2023/06/24 04:25:58;;;;;;;2.13;2.03;;;13.50;99.90;;;;;;5013821;28;20541;-71
2023/06/24 04:28:24;;;;;;;1.47;1.40;;;13.60;99.90;;;;;;5013849;28;20456;-70
2023/06/24 04:30:49;;;;;;;3.40;2.17;;;13.80;99.90;;;;;;5013884;28;20493;-71
2023/06/24 04:33:15;;;;;;;0.80;0.80;;;14.10;99.90;;;;;;5013431;28;20199;-71
2023/06/24 04:35:41;;;;;;;1.07;1.07;;;14.40;99.90;;;;;;5013695;28;20185;-68
2023/06/24 04:38:06;;;;;;;1.30;1.30;;;14.70;99.90;;;;;;5013662;28;20195;-69
2023/06/24 04:40:32;;;;;;;1.60;1.50;;;15.10;99.90;;;;;;5013555;28;20240;-69
2023/06/24 04:42:58;;;;;;;1.87;1.67;;;15.40;99.90;;;;;;5013329;28;20183;-70
2023/06/24 04:45:23;;;;;;;1.97;1.80;;;15.70;99.90;;;;;;5013434;28;20175;-69
2023/06/24 04:47:49;;;;;;;1.80;1.70;;;15.80;99.90;;;;;;5013471;28;20206;-70
2023/06/24 04:50:15;;;;;;;2.97;2.77;;;15.90;99.90;;;;;;5013442;28;20229;-70
2023/06/24 04:52:40;;;;;;;2.73;2.63;;;16.10;99.90;;;;;;5013348;28;20520;-70
2023/06/24 04:55:06;;;;;;;1.80;1.70;;;16.30;99.90;;;;;;5013621;28;20168;-71
2023/06/24 04:57:34;;;;;;;1.20;1.10;;;16.60;99.90;;;;;;5013367;28;20579;-70
2023/06/24 05:00:00;;;;;;;1.33;1.13;;;16.60;99.90;;;;;;5013395;28;20406;-71
2023/06/24 05:02:25;;;;;;;2.53;2.30;;;16.70;99.90;;;;;;5013157;28;20402;-71
2023/06/24 05:04:52;;;;;;;2.33;2.13;;;16.80;99.90;;;;;;5013427;28;20541;-70
2023/06/24 05:07:18;;;;;;;1.47;1.47;;;16.90;99.90;;;;;;5013344;28;20255;-70
2023/06/24 05:09:47;;;;;;;0.87;0.87;;;17.00;99.90;;;;;;5013144;28;20602;-70
2023/06/24 05:12:13;;;;;;;1.30;1.23;;;17.10;99.80;;;;;;5013091;28;20411;-71
2023/06/24 05:14:38;;;;;;;1.23;0.70;;;17.30;99.30;;;;;;5014065;28;20466;-71
2023/06/24 05:17:04;;;;;;;3.13;1.97;;;17.30;97.80;;;;;;5017279;28;20168;-69
2023/06/24 05:19:30;;;;;;;0.80;0.80;;;17.30;97.70;;;;;;5016961;28;20261;-70
2023/06/24 05:21:56;;;;;;;1.97;1.87;;;17.40;98.30;;;;;;5016835;28;20467;-69
2023/06/24 05:24:21;;;;;;;1.60;1.50;;;17.50;98.30;;;;;;5017187;28;20171;-70
2023/06/24 05:26:51;;;;;;;2.30;1.90;;;17.70;98.30;;;;;;5016892;28;20172;-70
2023/06/24 05:29:17;;;;;;;2.43;2.20;;;17.70;97.60;;;;;;5016792;28;20192;-71
2023/06/24 05:31:43;;;;;;;2.40;0.70;;;17.80;97.70;;;;;;5016604;28;20417;-71
2023/06/24 05:34:09;;;;;;;1.63;1.53;;;17.80;97.40;;;;;;5016885;28;20946;-70
2023/06/24 05:36:34;;;;;;;1.50;0.97;;;17.90;97.30;;;;;;5016845;28;20457;-70
2023/06/24 05:39:00;;;;;;;1.70;1.60;;;18.00;97.70;;;;;;5016626;28;20195;-71
2023/06/24 05:41:26;;;;;;;1.00;0.90;;;18.10;97.90;;;;;;5016400;28;20632;-70
2023/06/24 05:44:03;;;;;;;1.80;1.40;;;18.30;98.00;;;;;;5016801;28;20406;-70
2023/06/24 05:46:28;;;;;;;1.57;1.57;;;18.50;97.70;;;;;;5016594;28;20180;-70
2023/06/24 05:48:54;;;;;;;1.37;1.27;;;18.70;97.20;;;;;;5016437;28;20520;-71
2023/06/24 05:51:19;;;;;;;2.20;1.67;;;18.80;97.10;;;;;;5016290;28;20588;-70
2023/06/24 05:53:45;;;;;;;1.20;1.10;;;18.80;97.40;;;;;;5016453;28;20194;-71
2023/06/24 05:56:11;;;;;;;1.67;1.57;;;18.90;97.30;;;;;;5016350;28;20178;-71
2023/06/24 05:58:36;;;;;;;1.37;1.17;;;19.00;96.70;;;;;;5016241;28;20191;-70
2023/06/24 06:01:02;;;;;;;1.13;0.90;;;19.00;96.30;;;;;;5016159;28;20201;-69
2023/06/24 06:03:28;;;;;;;2.20;2.07;;;19.10;96.90;;;;;;5016332;28;20906;-70
2023/06/24 06:05:53;;;;;;;2.40;2.30;;;19.20;96.20;;;;;;5016314;28;20257;-70
2023/06/24 06:08:19;;;;;;;1.13;0.90;;;19.40;96.20;;;;;;5016038;28;20207;-72
2023/06/24 06:10:44;;;;;;;2.03;1.57;;;19.70;96.60;;;;;;5016117;28;20537;-72
2023/06/24 06:13:10;;;;;;;1.30;1.20;;;;;;;;;;5015854;28;20238;-71
2023/06/24 06:15:36;;;;;;;0.97;0.97;;;21.10;94.40;;;;;;5016273;28;20179;-71
2023/06/24 06:18:02;;;;;;;1.23;1.10;;;21.90;93.40;;;;;;5016108;28;20426;-72
2023/06/24 06:20:27;;;;;;;1.70;1.60;;;22.70;91.90;;;;;;5015957;28;20164;-72
2023/06/24 06:22:53;;;;;;;1.20;1.20;;;23.50;90.80;;;;;;5015918;28;20583;-71
2023/06/24 06:25:18;;;;;;;1.70;1.00;;;24.60;89.20;;;;;;5016072;28;20238;-72
2023/06/24 06:27:44;;;;;;;1.13;1.00;;;26.40;83.90;;;;;;5015690;28;20183;-73
2023/06/24 06:30:10;;;;;;;1.43;1.00;;;28.30;76.10;;;;;;5015786;28;20583;-72
2023/06/24 06:32:36;;;;;;;1.20;1.10;;;30.00;71.20;;;;;;5015441;28;20191;-73
2023/06/24 06:35:02;;;;;;;0.90;0.90;;;31.00;57.00;;;;;;5015610;28;20418;-72
2023/06/24 06:37:27;;;;;;;0.90;0.90;;;32.30;54.20;;;;;;5015620;28;20187;-73
2023/06/24 06:39:53;;;;;;;2.30;0.93;;;32.50;49.90;;;;;;5015523;28;20183;-73
2023/06/24 06:42:18;;;;;;;0.73;0.70;;;33.00;48.40;;;;;;5015306;28;20615;-72
2023/06/24 06:44:44;;;;;;;1.10;1.10;;;32.30;45.70;;;;;;5015843;28;20202;-72
2023/06/24 06:47:10;;;;;;;1.30;1.20;;;30.80;47.90;;;;;;5015538;28;20221;-73
2023/06/24 06:49:36;;;;;;;2.00;1.20;;;30.00;47.60;;;;;;5015366;28;20191;-71
2023/06/24 06:52:02;;;;;;;1.13;0.90;;;29.60;48.00;;;;;;5015183;28;20429;-70
2023/06/24 06:54:27;;;;;;;1.83;1.70;;;29.60;47.70;;;;;;5015351;28;20249;-73
2023/06/24 06:56:53;;;;;;;1.40;1.17;;;29.60;48.10;;;;;;5015238;28;20167;-70
2023/06/24 06:59:18;;;;;;;0.97;0.83;;;29.80;46.80;;;;;;5014964;28;20187;-71
2023/06/24 07:01:44;;;;;;;1.50;1.27;;;30.00;49.60;;;;;;5014876;28;20171;-73
2023/06/24 07:04:10;;;;;;;2.30;1.47;;;30.10;48.70;;;;;;5015186;28;20172;-70
2023/06/24 07:06:35;;;;;;;1.20;1.10;;;30.40;46.00;;;;;;5015205;28;20171;-71
2023/06/24 07:09:01;;;;;;;1.30;1.20;;;30.50;46.30;;;;;;5014789;28;20218;-73
2023/06/24 07:11:27;;;;;;;1.20;1.10;;;30.40;47.30;;;;;;5014907;28;20544;-71
2023/06/24 07:13:52;;;;;;;0.87;0.80;;;30.50;45.90;;;;;;5015196;28;20199;-72
2023/06/24 07:16:18;;;;;;;1.27;1.17;;;30.20;44.40;;;;;;5015082;28;20175;-73
2023/06/24 07:18:44;;;;;;;1.53;0.90;;;29.50;45.80;;;;;;5014887;28;20190;-72
2023/06/24 07:21:09;;;;;;;1.70;1.60;;;28.90;46.70;;;;;;5014613;28;20167;-72
2023/06/24 07:23:35;;;;;;;1.27;1.17;;;28.10;47.60;;;;;;5014811;28;20216;-71
2023/06/24 07:26:01;;;;;;;1.20;0.80;;;27.80;49.00;;;;;;5014637;28;20179;-73
2023/06/24 07:28:26;;;;;;;1.20;1.10;;;27.40;48.80;;;;;;5014590;28;20199;-73
2023/06/24 07:30:52;;;;;;;1.57;0.87;;;27.10;49.70;;;;;;5014701;28;20172;-71
2023/06/24 07:33:17;;;;;;;0.93;0.93;;;27.00;50.90;;;;;;5014516;28;20241;-72
2023/06/24 07:35:43;;;;;;;1.50;1.40;;;27.10;50.40;;;;;;5014606;28;20250;-70
2023/06/24 07:38:09;;;;;;;1.53;1.37;;;27.40;49.80;;;;;;5013794;28;20619;-70
2023/06/24 07:40:34;;;;;;;0.80;0.77;;;28.00;47.80;;;;;;5014488;28;20640;-71
2023/06/24 07:43:00;;;;;;;2.33;1.10;;;27.90;47.10;;;;;;5014225;28;20221;-69
2023/06/24 07:45:25;;;;;;;1.33;0.87;;;27.40;50.00;;;;;;5014412;28;20259;-70
2023/06/24 07:47:51;;;;;;;0.80;0.80;;;27.70;51.20;;;;;;5014492;28;20187;-73
2023/06/24 07:50:17;;;;;;;3.40;1.63;;;28.00;49.60;;;;;;5014521;28;20543;-72
2023/06/24 07:52:42;;;;;;;1.10;1.00;;;28.70;47.30;;;;;;5013920;28;20178;-74
2023/06/24 07:55:08;;;;;;;0.80;0.63;;;29.40;46.80;;;;;;5014170;28;20590;-71
2023/06/24 07:57:34;;;;;;;1.90;0.93;;;30.60;54.40;;;;;;5014214;28;20675;-71
2023/06/24 08:00:00;;;;;;;0.90;0.90;;;30.90;43.70;;;;;;5014179;28;20167;-71
2023/06/24 08:02:26;;;;;;;1.10;1.00;;;32.00;43.10;;;;;;5013865;28;20174;-72
2023/06/24 08:04:51;;;;;;;1.33;1.17;;;33.30;42.90;;;;;;5014105;28;20171;-73
2023/06/24 08:07:17;;;;;;;0.90;0.90;;;34.50;41.90;;;;;;5014135;28;20813;-74
2023/06/24 08:09:43;;;;;;;1.67;1.20;;;35.30;39.40;;;;;;5013867;28;20570;-73
2023/06/24 08:12:09;;;;;;;1.50;0.97;;;35.70;36.20;;;;;;5013810;28;20202;-72
2023/06/24 08:14:35;;;;;;;1.00;0.90;;;36.00;36.80;;;;;;5013952;28;20456;-73
2023/06/24 08:17:01;;;;;;;0.90;0.77;;;35.80;34.80;;;;;;5014040;28;20399;-71
2023/06/24 08:19:27;;;;;;;0.70;0.70;;;35.50;36.40;;;;;;5013739;28;20212;-74
2023/06/24 08:21:53;;;;;;;1.50;1.20;;;35.50;36.10;;;;;;5013793;28;20933;-71
2023/06/24 08:24:19;;;;;;;1.13;0.90;;;36.20;36.50;;;;;;5014217;28;20175;-74
2023/06/24 08:26:44;;;;;;;1.13;0.80;;;37.30;34.90;;;;;;5013719;28;20879;-72
2023/06/24 08:29:10;;;;;;;1.43;1.33;;;37.60;33.80;;;;;;5013779;28;20191;-72
2023/06/24 08:31:35;;;;;;;0.70;0.70;;;36.10;32.60;;;;;;5013654;28;20172;-74
2023/06/24 08:34:06;;;;;;;1.30;0.90;;;34.70;35.40;;;;;;5013744;28;20191;-70
2023/06/24 08:36:32;;;;;;;1.17;1.07;;;33.70;38.20;;;;;;5013556;28;20250;-72
2023/06/24 08:38:58;;;;;;;1.17;1.07;;;33.60;34.90;;;;;;5013692;28;20546;-73
2023/06/24 08:41:27;;;;;;;0.87;0.80;;;33.60;35.20;;;;;;5013545;28;20214;-72
2023/06/24 08:43:54;;;;;;;0.80;0.80;;;33.90;36.10;;;;;;5013551;28;20183;-73
2023/06/24 08:46:20;;;;;;;0.90;0.90;;;32.00;37.70;;;;;;5013569;28;20452;-73
2023/06/24 08:48:48;;;;;;;2.20;0.90;;;32.40;37.00;;;;;;5013406;28;20438;-72
2023/06/24 08:51:19;;;;;;;1.37;1.00;;;33.20;38.80;;;;;;5016651;28;20413;-73
2023/06/24 08:53:47;;;;;;;0.93;0.83;;;33.70;36.10;;;;;;5017848;28;20454;-72
2023/06/24 08:56:14;;;;;;;0.90;0.80;;;32.60;35.80;;;;;;5017458;28;20410;-73
2023/06/24 08:58:40;;;;;;;1.83;1.20;;;30.10;39.30;;;;;;4999788;28;20430;-71
2023/06/24 09:01:06;;;;;;;1.00;0.90;;;28.70;41.00;;;;;;5017334;28;20860;-71
2023/06/24 09:03:32;;;;;;;1.60;1.50;;;28.60;43.40;;;;;;5017217;28;20493;-72
2023/06/24 09:05:57;;;;;;;1.40;1.30;;;30.20;45.60;;;;;;5017455;28;20493;-71
2023/06/24 09:08:23;;;;;;;0.83;0.80;;;31.70;36.20;;;;;;5017083;28;20301;-72
2023/06/24 09:10:57;;;;;;;1.77;1.47;;;32.10;36.10;;;;;;5017143;28;20171;-71
2023/06/24 09:13:35;;;;;;;1.07;0.63;;;32.70;36.50;;;;;;5017454;28;20192;-72
2023/06/24 09:16:12;;;;;;;0.57;0.57;;;33.40;35.50;;;;;;5017299;28;20402;-72
2023/06/24 09:18:38;;;;;;;0.73;0.67;;;33.80;36.70;;;;;;5017169;28;20513;-72
2023/06/24 09:21:04;;;;;;;0.90;0.70;;;33.10;36.00;;;;;;5016909;28;20430;-74
2023/06/24 09:23:29;;;;;;;0.70;0.70;;;31.90;36.60;;;;;;4999615;28;20210;-73
2023/06/24 09:25:58;;;;;;;1.17;0.90;;;32.20;39.40;;;;;;5017054;28;20182;-71
2023/06/24 09:28:27;;;;;;;1.43;1.33;;;33.00;35.90;;;;;;5016951;28;20195;-71
2023/06/24 09:31:06;;;;;;;1.00;0.80;;;33.50;34.30;;;;;;5016802;28;20437;-71
2023/06/24 09:33:32;;;;;;;0.60;0.60;;;33.80;35.10;;;;;;5016795;28;20997;-71
2023/06/24 09:35:58;;;;;;;1.17;1.07;;;33.50;36.00;;;;;;4999337;28;20433;-72
2023/06/24 09:38:37;;;;;;;1.00;0.80;;;33.70;37.20;;;;;;5016715;28;20914;-74
2023/06/24 09:41:04;;;;;;;0.90;0.90;;;33.80;36.00;;;;;;5016382;28;20225;-73
2023/06/24 09:43:31;;;;;;;0.80;0.80;;;33.90;35.10;;;;;;5016613;28;20413;-73
2023/06/24 09:45:58;;;;;;;1.83;1.10;;;34.00;38.30;;;;;;5016671;28;20942;-73
2023/06/24 09:48:24;;;;;;;2.30;1.00;;;33.90;36.20;;;;;;5016412;28;20914;-72
2023/06/24 09:50:51;;;;;;;0.80;0.80;;;34.10;35.60;;;;;;5016621;28;20406;-71
2023/06/24 09:53:17;;;;;;;1.40;1.30;;;34.30;36.50;;;;;;5016343;28;20231;-74
2023/06/24 09:55:46;;;;;;;1.77;0.97;;;33.80;33.80;;;;;;5016751;28;20414;-74
2023/06/24 09:58:14;;;;;;;1.43;1.33;;;33.30;37.20;;;;;;5016319;28;20975;-72
2023/06/24 10:00:40;;;;;;;1.50;1.10;;;33.40;37.40;;;;;;5015840;28;20405;-71
2023/06/24 10:03:06;;;;;;;1.80;1.00;;;33.70;36.10;;;;;;5016166;28;20407;-73
2023/06/24 10:05:32;;;;;;;1.13;0.80;;;33.80;37.10;;;;;;5016159;28;20190;-73
2023/06/24 10:07:57;;;;;;;1.20;1.10;;;33.50;35.40;;;;;;5015897;28;20938;-71
2023/06/24 10:10:23;;;;;;;1.10;1.00;;;33.20;36.10;;;;;;5016042;28;20176;-72
2023/06/24 10:12:49;;;;;;;0.90;0.90;;;31.50;36.20;;;;;;5015795;28;20171;-72
2023/06/24 10:15:15;;;;;;;0.97;0.83;;;31.30;37.50;;;;;;5016027;28;20548;-73
2023/06/24 10:17:41;;;;;;;1.33;1.20;;;31.00;49.70;;;;;;5016030;28;20182;-73
2023/06/24 10:20:07;;;;;;;1.20;1.00;;;30.70;38.30;;;;;;5015876;28;20403;-71
2023/06/24 10:22:33;;;;;;;1.40;0.90;;;29.50;41.50;;;;;;5015713;28;20174;-71
2023/06/24 10:25:05;;;;;;;0.90;0.90;;;28.90;41.90;;;;;;5015729;28;20411;-73
2023/06/24 10:27:39;;;;;;;1.30;0.90;;;28.90;54.70;;;;;;5015677;28;20179;-73
2023/06/24 10:30:05;;;;;;;1.17;0.93;;;28.70;42.90;;;;;;5015904;28;20391;-71
2023/06/24 10:32:44;;;;;;;2.43;1.57;;;28.60;43.10;;;;;;5015543;28;20414;-73
2023/06/24 10:35:29;;;;;;;0.83;0.83;;;29.40;42.10;;;;;;5015592;28;20543;-73
2023/06/24 10:38:01;;;;;;;1.00;1.00;;;30.30;42.80;;;;;;5015932;28;20414;-72
2023/06/24 10:40:41;;;;;;;0.77;0.77;;;30.70;42.60;;;;;;5015542;28;20922;-73
2023/06/24 10:43:26;;;;;;;3.10;1.70;;;30.20;40.20;;;;;;5015490;28;20489;-73
2023/06/24 10:45:57;;;;;;;1.07;0.97;;;29.70;41.30;;;;;;5015414;28;20460;-72
2023/06/24 10:48:23;;;;;;;1.30;1.07;;;29.50;41.40;;;;;;5015321;28;20430;-73
2023/06/24 10:50:51;;;;;;;1.03;0.80;;;29.30;41.50;;;;;;5015436;28;20879;-73
2023/06/24 10:53:20;;;;;;;0.90;0.90;;;29.50;42.40;;;;;;5015164;28;20223;-71
2023/06/24 10:55:46;;;;;;;1.73;1.07;;;29.50;41.20;;;;;;5015370;28;20403;-71
2023/06/24 10:58:15;;;;;;;0.70;0.70;;;29.00;41.90;;;;;;5015259;28;20426;-72
2023/06/24 11:00:41;;;;;;;1.30;1.20;;;28.10;43.50;;;;;;5015167;28;20498;-73
2023/06/24 11:03:14;;;;;;;1.10;0.87;;;27.50;44.20;;;;;;5014964;28;20411;-73
2023/06/24 11:05:42;;;;;;;2.10;0.80;;;27.40;46.20;;;;;;5015020;28;20414;-73
2023/06/24 11:08:08;;;;;;;1.43;1.13;;;27.10;50.50;;;;;;5014859;28;20536;-72
2023/06/24 11:10:41;;;;;;;2.37;1.50;;;27.40;50.00;;;;;;5014958;28;20433;-73
2023/06/24 11:13:07;;;;;;;1.47;1.30;;;27.80;47.30;;;;;;5013850;28;20450;-71
2023/06/24 11:15:33;;;;;;;1.33;1.00;;;28.10;46.80;;;;;;4997092;28;20770;-71
2023/06/24 11:18:04;;;;;;;1.63;1.53;;;28.10;49.80;;;;;;5014852;28;20594;-72
2023/06/24 11:20:29;;;;;;;1.73;1.27;;;28.10;47.70;;;;;;5014748;28;20387;-73
2023/06/24 11:22:55;;;;;;;1.03;0.73;;;28.00;46.70;;;;;;5014737;28;20405;-72
2023/06/24 11:25:22;;;;;;;1.43;1.23;;;27.90;44.80;;;;;;5015259;28;20406;-71
2023/06/24 11:27:49;;;;;;;2.10;1.57;;;27.90;47.30;;;;;;5014564;28;20190;-71
2023/06/24 11:30:16;;;;;;;1.33;1.23;;;27.90;47.80;;;;;;5014559;28;20411;-72
2023/06/24 11:32:43;;;;;;;1.10;1.00;;;27.60;46.50;;;;;;5014407;28;20469;-70
2023/06/24 11:35:16;;;;;;;1.03;0.80;;;27.10;45.60;;;;;;5014548;28;20508;-73
2023/06/24 11:37:47;;;;;;;2.13;1.83;;;26.20;64.50;;;;;;5014628;28;20401;-72
2023/06/24 11:40:16;;;;;;;0.80;0.80;;;26.10;50.80;;;;;;5014651;28;20800;-71
2023/06/24 11:42:44;;;;;;;1.57;1.47;;;25.90;49.10;;;;;;5014503;28;20410;-74
2023/06/24 11:45:12;;;;;;;1.13;0.90;;;26.10;47.50;;;;;;5014405;28;20402;-73
2023/06/24 11:47:39;;;;;;;1.20;1.20;;;26.50;58.70;;;;;;5014314;28;20380;-72
2023/06/24 11:50:06;;;;;;;0.97;0.93;;;26.20;48.30;;;;;;5014291;28;20385;-73
2023/06/24 11:52:35;;;;;;;1.17;1.07;;;26.40;49.90;;;;;;5014072;28;20373;-71
2023/06/24 11:55:02;;;;;;;1.27;0.70;;;26.60;48.90;;;;;;5014246;28;20425;-72
2023/06/24 11:57:58;;;;;;;1.43;1.10;;;26.80;56.30;;;;;;5014158;28;20935;-73
2023/06/24 12:00:31;;;;;;;0.70;0.70;;;26.90;44.50;;;;;;5014238;28;20405;-72
2023/06/24 12:03:05;;;;;;;1.63;1.03;;;26.90;45.20;;;;;;5014033;28;20457;-71
2023/06/24 12:05:33;;;;;;;1.43;1.20;;;26.70;47.10;;;;;;5014131;28;20836;-71
2023/06/24 12:08:02;;;;;;;1.47;0.90;;;26.60;44.00;;;;;;5013937;28;20430;-73
2023/06/24 12:10:29;;;;;;;1.07;1.00;;;26.20;46.20;;;;;;5014457;28;20388;-71
2023/06/24 12:12:57;;;;;;;2.87;0.80;;;25.70;48.80;;;;;;5013797;28;20399;-71
2023/06/24 12:15:23;;;;;;;1.67;1.40;;;25.80;47.20;;;;;;5014135;28;20925;-73
2023/06/24 12:17:49;;;;;;;1.07;0.97;;;26.00;48.80;;;;;;5013882;28;20497;-71
2023/06/24 12:20:15;;;;;;;1.13;1.07;;;26.30;47.40;;;;;;5013805;28;20175;-71
2023/06/24 12:22:41;;;;;;;0.83;0.83;;;26.40;46.20;;;;;;5013801;28;20175;-71
2023/06/24 12:25:08;;;;;;;1.20;1.10;;;26.30;48.70;;;;;;5013637;28;20434;-73
2023/06/24 12:27:33;;;;;;;1.10;1.00;;;25.70;56.10;;;;;;5013685;28;20382;-71
2023/06/24 12:29:59;;;;;;;1.80;1.70;;;26.00;47.80;;;;;;5013557;28;20406;-71
2023/06/24 12:32:25;;;;;;;0.60;0.57;;;26.10;49.80;;;;;;5013422;28;20627;-70
2023/06/24 12:34:51;;;;;;;0.80;0.80;;;26.20;50.90;;;;;;5013637;28;20564;-71
2023/06/24 12:37:17;;;;;;;1.20;0.80;;;26.20;48.80;;;;;;5013705;28;20420;-72
2023/06/24 12:39:42;;;;;;;1.47;1.03;;;26.30;48.10;;;;;;5013567;28;20187;-71
2023/06/24 12:42:08;;;;;;;2.13;1.30;;;26.30;49.80;;;;;;5013395;28;20543;-72
2023/06/24 12:44:34;;;;;;;0.80;0.80;;;25.80;46.60;;;;;;5013518;28;20471;-71
2023/06/24 12:46:59;;;;;;;1.53;0.60;;;25.30;48.50;;;;;;5013588;28;20177;-70
2023/06/24 12:49:26;;;;;;;1.27;1.17;;;24.80;48.90;;;;;;5013438;28;20285;-72